Weather at Out Skerries Airfield

Public forecast

Using degrees Celsius for public forecast. Weather courtesy of forecast.io.

Closest aviation weather report (METAR) to Out Skerries Airfield

Closest report is Sumburgh Airport, 36.6 nm (67.8 km) SSW.

2024/07/14 16:50 (retrieved 38 minutes ago)

EGPB 141650Z 03010KT 9999 BKN011 12/10 Q1010 TEMPO BKN008

Closest aviation forecast (TAF) to Out Skerries Airfield

Closest forecast is Gullfaks C Helipad, 100.3 nm (185.8 km) ENE.

2024/07/14 15:41 (retrieved 2 hours ago)

TAF ENGC 141400Z 1415/1515 03028KT 9999 BKN007 BECMG 1416/1419 04018KT PROB40 1415/1513 0200 FG VV001 TEMPO 1503/1509 3000 SHRA BR BKN006 SCT030CB BECMG 1505/1507 VRB05KT BECMG 1509/1511 19015KT